sensor_id;sensor_type;location;lat;lon;timestamp;pressure;altitude;pressure_sealevel;temperature;humidity
34482;BME280;20720;48.886;9.388;2023-03-03T00:01:50;98623.97;;;4.05;100.00
34482;BME280;20720;48.886;9.388;2023-03-03T00:04:15;98623.06;;;3.96;100.00
34482;BME280;20720;48.886;9.388;2023-03-03T00:06:40;98616.94;;;3.97;100.00
34482;BME280;20720;48.886;9.388;2023-03-03T00:09:06;98621.44;;;3.95;100.00
34482;BME280;20720;48.886;9.388;2023-03-03T00:11:31;98621.69;;;3.84;100.00
34482;BME280;20720;48.886;9.388;2023-03-03T00:13:56;98613.59;;;3.87;100.00
34482;BME280;20720;48.886;9.388;2023-03-03T00:18:47;98618.34;;;3.74;100.00
34482;BME280;20720;48.886;9.388;2023-03-03T00:21:32;98617.16;;;3.68;100.00
34482;BME280;20720;48.886;9.388;2023-03-03T00:24:04;98617.53;;;3.73;100.00
34482;BME280;20720;48.886;9.388;2023-03-03T00:26:35;98617.97;;;3.69;100.00
34482;BME280;20720;48.886;9.388;2023-03-03T00:29:02;98620.19;;;3.64;100.00
34482;BME280;20720;48.886;9.388;2023-03-03T00:31:44;98623.97;;;3.69;100.00
34482;BME280;20720;48.886;9.388;2023-03-03T00:36:40;98623.00;;;3.53;100.00
34482;BME280;20720;48.886;9.388;2023-03-03T00:39:10;98629.38;;;3.41;100.00
34482;BME280;20720;48.886;9.388;2023-03-03T00:41:40;98625.25;;;3.48;100.00
34482;BME280;20720;48.886;9.388;2023-03-03T00:46:50;98621.31;;;2.62;100.00
34482;BME280;20720;48.886;9.388;2023-03-03T00:49:19;98619.13;;;3.22;100.00
34482;BME280;20720;48.886;9.388;2023-03-03T00:51:47;98614.34;;;3.44;100.00
34482;BME280;20720;48.886;9.388;2023-03-03T00:54:12;98623.31;;;3.50;100.00
34482;BME280;20720;48.886;9.388;2023-03-03T00:56:37;98622.25;;;3.43;100.00
34482;BME280;20720;48.886;9.388;2023-03-03T00:59:03;98619.28;;;3.38;100.00
34482;BME280;20720;48.886;9.388;2023-03-03T01:01:28;98620.19;;;3.02;100.00
34482;BME280;20720;48.886;9.388;2023-03-03T01:03:53;98619.03;;;3.14;100.00
34482;BME280;20720;48.886;9.388;2023-03-03T01:06:19;98616.59;;;3.30;100.00
34482;BME280;20720;48.886;9.388;2023-03-03T01:08:44;98613.56;;;3.34;100.00
34482;BME280;20720;48.886;9.388;2023-03-03T01:11:13;98612.75;;;3.07;100.00
34482;BME280;20720;48.886;9.388;2023-03-03T01:13:40;98612.28;;;3.21;100.00
34482;BME280;20720;48.886;9.388;2023-03-03T01:16:06;98610.78;;;3.01;100.00
34482;BME280;20720;48.886;9.388;2023-03-03T01:18:32;98610.13;;;3.16;100.00
34482;BME280;20720;48.886;9.388;2023-03-03T01:20:57;98617.78;;;3.18;100.00
34482;BME280;20720;48.886;9.388;2023-03-03T01:23:22;98614.50;;;3.16;100.00
34482;BME280;20720;48.886;9.388;2023-03-03T01:25:47;98616.50;;;3.04;100.00
34482;BME280;20720;48.886;9.388;2023-03-03T01:28:12;98615.19;;;2.91;100.00
34482;BME280;20720;48.886;9.388;2023-03-03T01:30:38;98619.50;;;3.00;100.00
34482;BME280;20720;48.886;9.388;2023-03-03T01:33:03;98616.31;;;2.78;100.00
34482;BME280;20720;48.886;9.388;2023-03-03T01:35:28;98609.88;;;2.82;100.00
34482;BME280;20720;48.886;9.388;2023-03-03T01:37:54;98615.84;;;2.93;100.00
34482;BME280;20720;48.886;9.388;2023-03-03T01:40:21;98619.81;;;2.97;100.00
34482;BME280;20720;48.886;9.388;2023-03-03T01:42:47;98619.84;;;2.87;100.00
34482;BME280;20720;48.886;9.388;2023-03-03T01:45:16;98611.72;;;2.72;100.00
34482;BME280;20720;48.886;9.388;2023-03-03T01:47:59;98618.06;;;2.88;100.00
34482;BME280;20720;48.886;9.388;2023-03-03T01:50:33;98612.38;;;3.02;100.00
34482;BME280;20720;48.886;9.388;2023-03-03T01:53:00;98609.44;;;2.97;100.00
34482;BME280;20720;48.886;9.388;2023-03-03T01:55:28;98608.16;;;2.73;100.00
34482;BME280;20720;48.886;9.388;2023-03-03T01:57:58;98595.00;;;2.84;100.00
34482;BME280;20720;48.886;9.388;2023-03-03T02:00:25;98595.00;;;2.84;100.00
34482;BME280;20720;48.886;9.388;2023-03-03T02:02:51;98591.53;;;2.94;100.00
34482;BME280;20720;48.886;9.388;2023-03-03T02:05:17;98592.28;;;2.76;100.00
34482;BME280;20720;48.886;9.388;2023-03-03T02:07:42;98591.72;;;2.82;100.00
34482;BME280;20720;48.886;9.388;2023-03-03T02:10:09;98592.22;;;2.68;100.00
34482;BME280;20720;48.886;9.388;2023-03-03T02:12:50;98579.59;;;2.46;100.00
34482;BME280;20720;48.886;9.388;2023-03-03T02:15:32;98583.91;;;2.65;100.00
34482;BME280;20720;48.886;9.388;2023-03-03T02:18:02;98581.97;;;2.67;100.00
34482;BME280;20720;48.886;9.388;2023-03-03T02:20:37;98583.09;;;2.64;100.00
34482;BME280;20720;48.886;9.388;2023-03-03T02:23:06;98576.00;;;2.66;100.00
34482;BME280;20720;48.886;9.388;2023-03-03T02:25:39;98585.38;;;2.67;100.00
34482;BME280;20720;48.886;9.388;2023-03-03T02:28:07;98591.00;;;2.26;100.00
34482;BME280;20720;48.886;9.388;2023-03-03T02:30:35;98582.69;;;2.59;100.00
34482;BME280;20720;48.886;9.388;2023-03-03T02:33:01;98586.06;;;2.69;100.00
34482;BME280;20720;48.886;9.388;2023-03-03T02:35:31;98580.94;;;2.14;100.00
34482;BME280;20720;48.886;9.388;2023-03-03T02:37:59;98584.91;;;2.54;100.00
34482;BME280;20720;48.886;9.388;2023-03-03T02:43:35;98593.72;;;2.61;100.00
34482;BME280;20720;48.886;9.388;2023-03-03T02:46:03;98589.41;;;2.52;100.00
34482;BME280;20720;48.886;9.388;2023-03-03T02:48:28;98598.44;;;2.39;100.00
34482;BME280;20720;48.886;9.388;2023-03-03T02:50:54;98594.38;;;2.36;100.00
34482;BME280;20720;48.886;9.388;2023-03-03T02:53:19;98601.06;;;2.29;100.00
34482;BME280;20720;48.886;9.388;2023-03-03T02:55:44;98601.34;;;2.26;100.00
34482;BME280;20720;48.886;9.388;2023-03-03T02:58:09;98600.94;;;2.31;100.00
34482;BME280;20720;48.886;9.388;2023-03-03T03:00:34;98597.53;;;2.30;100.00
34482;BME280;20720;48.886;9.388;2023-03-03T03:02:59;98600.50;;;2.35;100.00
34482;BME280;20720;48.886;9.388;2023-03-03T03:05:26;98602.97;;;2.27;100.00
34482;BME280;20720;48.886;9.388;2023-03-03T03:07:51;98602.31;;;2.25;100.00
34482;BME280;20720;48.886;9.388;2023-03-03T03:10:16;98598.44;;;2.39;100.00
34482;BME280;20720;48.886;9.388;2023-03-03T03:12:41;98599.09;;;2.50;100.00
34482;BME280;20720;48.886;9.388;2023-03-03T03:15:07;98592.72;;;2.35;100.00
34482;BME280;20720;48.886;9.388;2023-03-03T03:17:34;98601.97;;;2.47;100.00
34482;BME280;20720;48.886;9.388;2023-03-03T03:19:59;98593.75;;;2.52;100.00
34482;BME280;20720;48.886;9.388;2023-03-03T03:22:25;98598.72;;;2.45;100.00
34482;BME280;20720;48.886;9.388;2023-03-03T03:24:50;98608.75;;;2.58;100.00
34482;BME280;20720;48.886;9.388;2023-03-03T03:27:15;98598.88;;;2.34;100.00
34482;BME280;20720;48.886;9.388;2023-03-03T03:29:40;98603.03;;;2.54;100.00
34482;BME280;20720;48.886;9.388;2023-03-03T03:32:05;98609.06;;;2.55;100.00
34482;BME280;20720;48.886;9.388;2023-03-03T03:34:30;98607.16;;;2.47;100.00
34482;BME280;20720;48.886;9.388;2023-03-03T03:36:56;98605.75;;;2.62;100.00
34482;BME280;20720;48.886;9.388;2023-03-03T03:39:21;98605.97;;;2.42;100.00
34482;BME280;20720;48.886;9.388;2023-03-03T03:41:46;98602.91;;;2.10;100.00
34482;BME280;20720;48.886;9.388;2023-03-03T03:44:11;98603.53;;;2.67;100.00
34482;BME280;20720;48.886;9.388;2023-03-03T03:46:36;98604.03;;;2.80;100.00
34482;BME280;20720;48.886;9.388;2023-03-03T03:49:01;98605.31;;;2.67;100.00
34482;BME280;20720;48.886;9.388;2023-03-03T03:51:27;98603.06;;;2.45;100.00
34482;BME280;20720;48.886;9.388;2023-03-03T03:53:52;98597.41;;;2.96;100.00
34482;BME280;20720;48.886;9.388;2023-03-03T03:56:17;98596.56;;;3.05;100.00
34482;BME280;20720;48.886;9.388;2023-03-03T03:58:42;98603.69;;;3.20;100.00
34482;BME280;20720;48.886;9.388;2023-03-03T04:01:07;98603.25;;;3.25;100.00
34482;BME280;20720;48.886;9.388;2023-03-03T04:03:33;98601.72;;;2.77;100.00
34482;BME280;20720;48.886;9.388;2023-03-03T04:05:58;98598.84;;;2.80;100.00
34482;BME280;20720;48.886;9.388;2023-03-03T04:08:23;98602.72;;;2.67;100.00
34482;BME280;20720;48.886;9.388;2023-03-03T04:10:48;98606.06;;;3.14;100.00
34482;BME280;20720;48.886;9.388;2023-03-03T04:13:13;98599.03;;;2.97;100.00
34482;BME280;20720;48.886;9.388;2023-03-03T04:15:39;98608.47;;;3.42;100.00
34482;BME280;20720;48.886;9.388;2023-03-03T04:18:04;98609.56;;;3.40;100.00
34482;BME280;20720;48.886;9.388;2023-03-03T04:20:29;98614.41;;;3.35;100.00
34482;BME280;20720;48.886;9.388;2023-03-03T04:22:54;98611.94;;;3.51;100.00
34482;BME280;20720;48.886;9.388;2023-03-03T04:25:21;98608.91;;;3.38;100.00
34482;BME280;20720;48.886;9.388;2023-03-03T04:27:46;98603.50;;;3.66;100.00
34482;BME280;20720;48.886;9.388;2023-03-03T04:30:12;98614.34;;;3.79;100.00
34482;BME280;20720;48.886;9.388;2023-03-03T04:32:37;98609.38;;;3.86;100.00
34482;BME280;20720;48.886;9.388;2023-03-03T04:35:03;98613.16;;;3.92;100.00
34482;BME280;20720;48.886;9.388;2023-03-03T04:37:28;98620.63;;;3.77;100.00
34482;BME280;20720;48.886;9.388;2023-03-03T04:39:53;98621.38;;;3.87;100.00
34482;BME280;20720;48.886;9.388;2023-03-03T04:42:18;98622.81;;;4.07;100.00
34482;BME280;20720;48.886;9.388;2023-03-03T04:44:44;98626.41;;;4.06;100.00
34482;BME280;20720;48.886;9.388;2023-03-03T04:47:09;98633.22;;;4.07;100.00
34482;BME280;20720;48.886;9.388;2023-03-03T04:49:34;98640.50;;;4.04;100.00
34482;BME280;20720;48.886;9.388;2023-03-03T04:51:59;98638.16;;;4.10;100.00
34482;BME280;20720;48.886;9.388;2023-03-03T04:54:25;98643.63;;;4.07;100.00
34482;BME280;20720;48.886;9.388;2023-03-03T04:56:50;98644.84;;;3.95;100.00
34482;BME280;20720;48.886;9.388;2023-03-03T04:59:15;98644.09;;;3.85;100.00
34482;BME280;20720;48.886;9.388;2023-03-03T05:01:40;98639.28;;;3.72;100.00
34482;BME280;20720;48.886;9.388;2023-03-03T05:04:05;98636.50;;;4.09;100.00
34482;BME280;20720;48.886;9.388;2023-03-03T05:06:31;98646.91;;;4.09;100.00
34482;BME280;20720;48.886;9.388;2023-03-03T05:08:56;98643.03;;;4.13;100.00
34482;BME280;20720;48.886;9.388;2023-03-03T05:11:21;98635.31;;;4.21;100.00
34482;BME280;20720;48.886;9.388;2023-03-03T05:13:46;98633.69;;;3.50;100.00
34482;BME280;20720;48.886;9.388;2023-03-03T05:16:12;98628.94;;;3.98;100.00
34482;BME280;20720;48.886;9.388;2023-03-03T05:18:37;98631.59;;;4.06;100.00
34482;BME280;20720;48.886;9.388;2023-03-03T05:21:02;98633.22;;;4.07;100.00
34482;BME280;20720;48.886;9.388;2023-03-03T05:23:28;98647.03;;;4.25;100.00
34482;BME280;20720;48.886;9.388;2023-03-03T05:25:53;98638.75;;;4.30;100.00
34482;BME280;20720;48.886;9.388;2023-03-03T05:28:19;98639.59;;;4.30;100.00
34482;BME280;20720;48.886;9.388;2023-03-03T05:30:44;98644.91;;;4.46;100.00
34482;BME280;20720;48.886;9.388;2023-03-03T05:33:12;98644.84;;;4.38;100.00
34482;BME280;20720;48.886;9.388;2023-03-03T05:35:37;98642.34;;;4.54;100.00
34482;BME280;20720;48.886;9.388;2023-03-03T05:38:02;98647.41;;;4.56;100.00
34482;BME280;20720;48.886;9.388;2023-03-03T05:40:28;98650.53;;;4.67;100.00
34482;BME280;20720;48.886;9.388;2023-03-03T05:42:53;98647.88;;;4.51;100.00
34482;BME280;20720;48.886;9.388;2023-03-03T05:45:19;98657.53;;;4.41;100.00
34482;BME280;20720;48.886;9.388;2023-03-03T05:47:45;98662.69;;;4.59;100.00
34482;BME280;20720;48.886;9.388;2023-03-03T05:50:10;98668.16;;;4.48;100.00
34482;BME280;20720;48.886;9.388;2023-03-03T05:52:36;98665.31;;;4.59;100.00
34482;BME280;20720;48.886;9.388;2023-03-03T05:55:01;98659.19;;;4.68;100.00
34482;BME280;20720;48.886;9.388;2023-03-03T05:57:26;98672.19;;;4.42;100.00
34482;BME280;20720;48.886;9.388;2023-03-03T05:59:52;98671.63;;;4.13;100.00
34482;BME280;20720;48.886;9.388;2023-03-03T06:02:17;98668.25;;;4.38;100.00
34482;BME280;20720;48.886;9.388;2023-03-03T06:04:42;98671.53;;;4.40;100.00
34482;BME280;20720;48.886;9.388;2023-03-03T06:07:07;98670.03;;;4.38;100.00
34482;BME280;20720;48.886;9.388;2023-03-03T06:09:33;98666.59;;;4.37;100.00
34482;BME280;20720;48.886;9.388;2023-03-03T06:11:58;98672.88;;;4.52;100.00
34482;BME280;20720;48.886;9.388;2023-03-03T06:14:23;98677.66;;;4.57;100.00
34482;BME280;20720;48.886;9.388;2023-03-03T06:16:49;98675.94;;;4.65;100.00
34482;BME280;20720;48.886;9.388;2023-03-03T06:19:14;98684.38;;;4.42;100.00
34482;BME280;20720;48.886;9.388;2023-03-03T06:21:39;98681.75;;;4.16;100.00
34482;BME280;20720;48.886;9.388;2023-03-03T06:24:05;98690.84;;;4.20;100.00
34482;BME280;20720;48.886;9.388;2023-03-03T06:26:30;98688.28;;;4.63;100.00
34482;BME280;20720;48.886;9.388;2023-03-03T06:28:56;98688.31;;;4.71;100.00
34482;BME280;20720;48.886;9.388;2023-03-03T06:31:21;98688.34;;;4.79;100.00
34482;BME280;20720;48.886;9.388;2023-03-03T06:33:46;98702.22;;;4.62;100.00
34482;BME280;20720;48.886;9.388;2023-03-03T06:36:12;98700.72;;;4.52;100.00
34482;BME280;20720;48.886;9.388;2023-03-03T06:38:37;98698.16;;;4.86;100.00
34482;BME280;20720;48.886;9.388;2023-03-03T06:41:02;98704.88;;;4.96;100.00
34482;BME280;20720;48.886;9.388;2023-03-03T06:43:31;98710.38;;;5.19;100.00
34482;BME280;20720;48.886;9.388;2023-03-03T06:45:56;98704.09;;;5.29;100.00
34482;BME280;20720;48.886;9.388;2023-03-03T06:48:21;98707.66;;;5.28;100.00
34482;BME280;20720;48.886;9.388;2023-03-03T06:50:46;98707.81;;;5.27;100.00
34482;BME280;20720;48.886;9.388;2023-03-03T06:53:13;98715.28;;;5.22;100.00
34482;BME280;20720;48.886;9.388;2023-03-03T06:55:39;98717.34;;;5.10;100.00
34482;BME280;20720;48.886;9.388;2023-03-03T06:58:09;98715.03;;;5.07;100.00
34482;BME280;20720;48.886;9.388;2023-03-03T07:00:36;98715.69;;;5.09;100.00
34482;BME280;20720;48.886;9.388;2023-03-03T07:03:06;98724.31;;;5.43;100.00
34482;BME280;20720;48.886;9.388;2023-03-03T07:05:32;98723.28;;;5.62;100.00
34482;BME280;20720;48.886;9.388;2023-03-03T07:07:58;98722.53;;;5.10;100.00
34482;BME280;20720;48.886;9.388;2023-03-03T07:10:25;98725.69;;;5.22;100.00
34482;BME280;20720;48.886;9.388;2023-03-03T07:12:50;98727.34;;;4.97;100.00
34482;BME280;20720;48.886;9.388;2023-03-03T07:15:20;98719.63;;;5.55;100.00
34482;BME280;20720;48.886;9.388;2023-03-03T07:17:49;98725.50;;;5.99;100.00
34482;BME280;20720;48.886;9.388;2023-03-03T07:20:32;98723.41;;;6.10;100.00
34482;BME280;20720;48.886;9.388;2023-03-03T07:22:59;98727.66;;;6.19;100.00
34482;BME280;20720;48.886;9.388;2023-03-03T07:27:53;98733.88;;;6.26;100.00
34482;BME280;20720;48.886;9.388;2023-03-03T07:30:27;98730.56;;;6.08;100.00
34482;BME280;20720;48.886;9.388;2023-03-03T07:32:54;98738.75;;;6.45;100.00
34482;BME280;20720;48.886;9.388;2023-03-03T07:35:25;98737.78;;;6.38;100.00
34482;BME280;20720;48.886;9.388;2023-03-03T07:37:53;98738.13;;;6.43;100.00
34482;BME280;20720;48.886;9.388;2023-03-03T07:42:50;98737.72;;;6.95;100.00
34482;BME280;20720;48.886;9.388;2023-03-03T07:45:28;98739.69;;;7.09;100.00
34482;BME280;20720;48.886;9.388;2023-03-03T07:48:09;98745.84;;;7.16;100.00
34482;BME280;20720;48.886;9.388;2023-03-03T07:50:39;98748.81;;;7.05;100.00
34482;BME280;20720;48.886;9.388;2023-03-03T07:53:07;98752.06;;;7.15;100.00
34482;BME280;20720;48.886;9.388;2023-03-03T07:55:37;98755.44;;;7.39;100.00
34482;BME280;20720;48.886;9.388;2023-03-03T08:03:16;98770.84;;;8.04;100.00
34482;BME280;20720;48.886;9.388;2023-03-03T08:05:42;98772.94;;;7.78;100.00
34482;BME280;20720;48.886;9.388;2023-03-03T08:10:39;98773.69;;;7.94;100.00
34482;BME280;20720;48.886;9.388;2023-03-03T08:13:20;98777.19;;;8.09;100.00
34482;BME280;20720;48.886;9.388;2023-03-03T08:15:49;98769.31;;;8.85;97.22
34482;BME280;20720;48.886;9.388;2023-03-03T08:18:49;98771.09;;;9.66;89.77
34482;BME280;20720;48.886;9.388;2023-03-03T08:23:32;98767.81;;;9.20;89.42
34482;BME280;20720;48.886;9.388;2023-03-03T08:25:57;98772.09;;;9.79;87.89
34482;BME280;20720;48.886;9.388;2023-03-03T08:28:22;98770.56;;;9.56;88.77
34482;BME280;20720;48.886;9.388;2023-03-03T08:30:48;98772.94;;;10.15;85.05
34482;BME280;20720;48.886;9.388;2023-03-03T08:33:13;98767.75;;;10.58;82.55
34482;BME280;20720;48.886;9.388;2023-03-03T08:35:39;98773.38;;;11.03;79.25
34482;BME280;20720;48.886;9.388;2023-03-03T08:38:04;98771.97;;;10.80;79.37
34482;BME280;20720;48.886;9.388;2023-03-03T08:40:30;98769.69;;;10.98;78.30
34482;BME280;20720;48.886;9.388;2023-03-03T08:42:55;98776.72;;;10.49;81.93
34482;BME280;20720;48.886;9.388;2023-03-03T08:45:22;98776.13;;;11.51;78.87
34482;BME280;20720;48.886;9.388;2023-03-03T08:47:47;98783.00;;;11.17;78.23
34482;BME280;20720;48.886;9.388;2023-03-03T08:50:12;98784.59;;;6.56;100.00
34482;BME280;20720;48.886;9.388;2023-03-03T08:52:38;98783.22;;;8.40;100.00
34482;BME280;20720;48.886;9.388;2023-03-03T08:55:03;98787.63;;;9.08;96.03
34482;BME280;20720;48.886;9.388;2023-03-03T08:57:28;98792.94;;;10.02;87.65
34482;BME280;20720;48.886;9.388;2023-03-03T08:59:54;98794.69;;;10.45;83.32
34482;BME280;20720;48.886;9.388;2023-03-03T09:02:19;98791.63;;;9.77;85.13
34482;BME280;20720;48.886;9.388;2023-03-03T09:04:44;98791.34;;;9.42;89.75
34482;BME280;20720;48.886;9.388;2023-03-03T09:07:09;98799.44;;;6.63;100.00
34482;BME280;20720;48.886;9.388;2023-03-03T09:09:35;98795.91;;;5.65;100.00
34482;BME280;20720;48.886;9.388;2023-03-03T09:12:14;98798.66;;;7.66;100.00
34482;BME280;20720;48.886;9.388;2023-03-03T09:14:40;98795.81;;;9.42;94.26
34482;BME280;20720;48.886;9.388;2023-03-03T09:17:15;98800.22;;;8.90;95.84
34482;BME280;20720;48.886;9.388;2023-03-03T09:19:42;98803.94;;;9.47;91.51
34482;BME280;20720;48.886;9.388;2023-03-03T09:22:17;98801.72;;;10.23;85.64
34482;BME280;20720;48.886;9.388;2023-03-03T09:24:43;98808.75;;;10.37;85.15
34482;BME280;20720;48.886;9.388;2023-03-03T09:27:12;98811.34;;;9.29;94.19
34482;BME280;20720;48.886;9.388;2023-03-03T09:29:39;98811.50;;;10.00;85.04
34482;BME280;20720;48.886;9.388;2023-03-03T09:32:29;98813.97;;;9.43;92.21
34482;BME280;20720;48.886;9.388;2023-03-03T09:34:50;98811.50;;;10.93;82.69
34482;BME280;20720;48.886;9.388;2023-03-03T09:37:20;98810.03;;;10.63;81.30
34482;BME280;20720;48.886;9.388;2023-03-03T09:39:49;98806.66;;;11.73;77.28
34482;BME280;20720;48.886;9.388;2023-03-03T09:42:19;98807.56;;;11.31;78.02
34482;BME280;20720;48.886;9.388;2023-03-03T09:55:34;98820.94;;;12.45;72.17
34482;BME280;20720;48.886;9.388;2023-03-03T10:13:18;98813.78;;;14.02;63.92
34482;BME280;20720;48.886;9.388;2023-03-03T10:16:06;98815.44;;;13.97;62.85
34482;BME280;20720;48.886;9.388;2023-03-03T10:21:29;98808.09;;;15.61;58.27
34482;BME280;20720;48.886;9.388;2023-03-03T10:26:35;98804.81;;;15.41;56.55
34482;BME280;20720;48.886;9.388;2023-03-03T10:29:06;98809.59;;;14.39;58.34
34482;BME280;20720;48.886;9.388;2023-03-03T10:31:39;98806.56;;;13.78;61.67
34482;BME280;20720;48.886;9.388;2023-03-03T10:34:32;98805.00;;;14.28;61.18
34482;BME280;20720;48.886;9.388;2023-03-03T10:47:33;98805.19;;;12.91;65.35
34482;BME280;20720;48.886;9.388;2023-03-03T10:50:20;98807.03;;;13.49;63.95
34482;BME280;20720;48.886;9.388;2023-03-03T10:53:01;98802.94;;;12.62;66.16
34482;BME280;20720;48.886;9.388;2023-03-03T10:58:11;98803.47;;;13.94;62.01
34482;BME280;20720;48.886;9.388;2023-03-03T11:05:54;98815.97;;;13.55;63.80
34482;BME280;20720;48.886;9.388;2023-03-03T11:13:55;98812.13;;;12.18;68.65
34482;BME280;20720;48.886;9.388;2023-03-03T11:19:11;98816.38;;;13.45;64.50
34482;BME280;20720;48.886;9.388;2023-03-03T11:21:46;98813.13;;;13.56;63.00
34482;BME280;20720;48.886;9.388;2023-03-03T11:24:20;98816.91;;;13.80;61.62
34482;BME280;20720;48.886;9.388;2023-03-03T11:27:13;98816.56;;;13.50;62.93
34482;BME280;20720;48.886;9.388;2023-03-03T11:32:00;98808.06;;;13.22;61.54
34482;BME280;20720;48.886;9.388;2023-03-03T11:37:07;98813.56;;;14.17;60.50
34482;BME280;20720;48.886;9.388;2023-03-03T11:39:34;98806.81;;;14.21;59.59
34482;BME280;20720;48.886;9.388;2023-03-03T11:42:02;98808.66;;;13.44;60.80
34482;BME280;20720;48.886;9.388;2023-03-03T11:44:39;98803.59;;;14.12;59.87
34482;BME280;20720;48.886;9.388;2023-03-03T11:47:16;98802.19;;;13.20;59.38
34482;BME280;20720;48.886;9.388;2023-03-03T11:49:44;98796.38;;;12.32;64.92
34482;BME280;20720;48.886;9.388;2023-03-03T11:52:23;98788.41;;;13.05;64.06
34482;BME280;20720;48.886;9.388;2023-03-03T11:57:34;98783.56;;;13.98;62.55
34482;BME280;20720;48.886;9.388;2023-03-03T12:00:05;98786.97;;;14.50;58.38
34482;BME280;20720;48.886;9.388;2023-03-03T12:05:10;98772.91;;;14.87;58.13
34482;BME280;20720;48.886;9.388;2023-03-03T12:07:47;98772.97;;;13.15;58.51
34482;BME280;20720;48.886;9.388;2023-03-03T12:13:04;98769.41;;;14.17;59.06
34482;BME280;20720;48.886;9.388;2023-03-03T12:15:39;98771.38;;;15.47;55.70
34482;BME280;20720;48.886;9.388;2023-03-03T12:26:01;98763.44;;;16.31;52.40
34482;BME280;20720;48.886;9.388;2023-03-03T12:34:25;98754.16;;;20.34;43.40
34482;BME280;20720;48.886;9.388;2023-03-03T12:37:09;98751.13;;;20.04;43.80
34482;BME280;20720;48.886;9.388;2023-03-03T12:39:49;98751.84;;;16.84;45.44
34482;BME280;20720;48.886;9.388;2023-03-03T12:44:55;98755.34;;;15.60;52.52
34482;BME280;20720;48.886;9.388;2023-03-03T12:47:26;98743.84;;;16.02;47.92
34482;BME280;20720;48.886;9.388;2023-03-03T12:50:00;98752.13;;;12.14;58.10
34482;BME280;20720;48.886;9.388;2023-03-03T12:55:34;98737.50;;;19.24;45.51
34482;BME280;20720;48.886;9.388;2023-03-03T12:58:10;98734.63;;;20.28;44.02
34482;BME280;20720;48.886;9.388;2023-03-03T13:00:42;98738.41;;;21.69;41.45
34482;BME280;20720;48.886;9.388;2023-03-03T13:05:45;98732.91;;;21.86;39.57
34482;BME280;20720;48.886;9.388;2023-03-03T13:10:42;98744.78;;;20.90;39.66
34482;BME280;20720;48.886;9.388;2023-03-03T13:15:57;98735.28;;;21.40;37.96
34482;BME280;20720;48.886;9.388;2023-03-03T13:21:10;98731.50;;;21.31;38.87
34482;BME280;20720;48.886;9.388;2023-03-03T13:26:16;98741.31;;;19.88;40.63
34482;BME280;20720;48.886;9.388;2023-03-03T13:31:49;98724.63;;;17.58;44.66
34482;BME280;20720;48.886;9.388;2023-03-03T13:36:56;98721.78;;;19.82;40.25
34482;BME280;20720;48.886;9.388;2023-03-03T13:39:23;98715.38;;;20.05;40.42
34482;BME280;20720;48.886;9.388;2023-03-03T13:41:54;98718.00;;;21.06;38.53
34482;BME280;20720;48.886;9.388;2023-03-03T13:44:23;98717.59;;;21.29;37.62
34482;BME280;20720;48.886;9.388;2023-03-03T13:49:40;98705.94;;;21.45;38.27
34482;BME280;20720;48.886;9.388;2023-03-03T13:52:12;98705.41;;;21.48;37.12
34482;BME280;20720;48.886;9.388;2023-03-03T13:59:35;98703.84;;;20.47;38.37
34482;BME280;20720;48.886;9.388;2023-03-03T14:04:59;98690.09;;;21.96;37.05
34482;BME280;20720;48.886;9.388;2023-03-03T14:07:27;98696.16;;;22.63;36.57
34482;BME280;20720;48.886;9.388;2023-03-03T14:15:14;98691.28;;;20.48;37.32
34482;BME280;20720;48.886;9.388;2023-03-03T14:20:26;98687.19;;;20.14;39.28
34482;BME280;20720;48.886;9.388;2023-03-03T14:22:57;98682.88;;;20.08;39.93
34482;BME280;20720;48.886;9.388;2023-03-03T14:25:23;98680.78;;;18.12;41.95
34482;BME280;20720;48.886;9.388;2023-03-03T14:28:03;98685.03;;;20.32;39.89
34482;BME280;20720;48.886;9.388;2023-03-03T14:35:32;98683.59;;;20.83;38.86
34482;BME280;20720;48.886;9.388;2023-03-03T14:38:02;98677.84;;;21.48;37.86
34482;BME280;20720;48.886;9.388;2023-03-03T14:40:31;98676.66;;;21.76;38.16
34482;BME280;20720;48.886;9.388;2023-03-03T14:42:58;98673.59;;;22.54;36.89
34482;BME280;20720;48.886;9.388;2023-03-03T14:45:32;98670.38;;;22.32;36.08
34482;BME280;20720;48.886;9.388;2023-03-03T14:47:57;98675.13;;;22.00;37.13
34482;BME280;20720;48.886;9.388;2023-03-03T14:50:36;98678.16;;;22.38;36.47
34482;BME280;20720;48.886;9.388;2023-03-03T14:53:13;98676.63;;;21.19;38.04
34482;BME280;20720;48.886;9.388;2023-03-03T14:55:41;98669.50;;;21.91;36.46
34482;BME280;20720;48.886;9.388;2023-03-03T14:58:07;98676.28;;;22.54;35.50
34482;BME280;20720;48.886;9.388;2023-03-03T15:00:47;98675.19;;;23.41;34.33
34482;BME280;20720;48.886;9.388;2023-03-03T15:03:17;98677.06;;;23.15;34.48
34482;BME280;20720;48.886;9.388;2023-03-03T15:05:51;98674.03;;;21.29;36.62
34482;BME280;20720;48.886;9.388;2023-03-03T15:08:22;98661.28;;;22.18;36.26
34482;BME280;20720;48.886;9.388;2023-03-03T15:10:48;98665.28;;;21.43;37.12
34482;BME280;20720;48.886;9.388;2023-03-03T15:15:51;98658.84;;;22.11;35.94
34482;BME280;20720;48.886;9.388;2023-03-03T15:18:16;98656.41;;;22.05;36.47
34482;BME280;20720;48.886;9.388;2023-03-03T15:20:53;98653.28;;;22.83;35.54
34482;BME280;20720;48.886;9.388;2023-03-03T15:26:01;98658.81;;;20.61;38.46
34482;BME280;20720;48.886;9.388;2023-03-03T15:33:44;98645.78;;;21.01;38.78
34482;BME280;20720;48.886;9.388;2023-03-03T15:36:31;98649.72;;;21.40;38.24
34482;BME280;20720;48.886;9.388;2023-03-03T15:39:02;98653.47;;;20.98;38.39
34482;BME280;20720;48.886;9.388;2023-03-03T15:41:39;98646.84;;;21.47;37.69
34482;BME280;20720;48.886;9.388;2023-03-03T15:44:11;98651.91;;;20.33;39.24
34482;BME280;20720;48.886;9.388;2023-03-03T15:51:54;98649.75;;;18.79;42.43
34482;BME280;20720;48.886;9.388;2023-03-03T15:54:44;98656.50;;;18.09;43.85
34482;BME280;20720;48.886;9.388;2023-03-03T15:59:52;98657.81;;;16.80;47.36
34482;BME280;20720;48.886;9.388;2023-03-03T16:02:23;98660.88;;;16.13;49.26
34482;BME280;20720;48.886;9.388;2023-03-03T16:05:06;98661.25;;;15.57;50.42